Time;durP1;ratioP1;P1;durP2;ratioP2;P2;SDS_P1;SDS_P2;PMS_P1;PMS_P2;Temp;Humidity;BMP_temperature;BMP_pressure;BME280_temperature;BME280_humidity;BME280_pressure;Samples;Min_cycle;Max_cycle;Signal;HPM_P1;HPM_P2
2023/03/04 00:01:54;;;;;;;89.97;34.88;;;4.80;60.70;;;-0.53;100.00;95888.28;4935820;28;20030;-48
2023/03/04 00:04:19;;;;;;;84.05;32.65;;;4.70;60.80;;;-0.59;100.00;95889.81;4934875;28;20081;-48
2023/03/04 00:06:45;;;;;;;100.57;37.38;;;4.60;60.80;;;-0.66;100.00;95888.94;4939656;28;20477;-48
2023/03/04 00:09:14;;;;;;;90.75;34.30;;;4.50;60.80;;;-0.71;100.00;95899.16;4947060;28;20065;-50
2023/03/04 00:11:43;;;;;;;88.18;33.78;;;4.50;61.00;;;-0.77;100.00;95892.88;4952456;28;20030;-48
2023/03/04 00:14:12;;;;;;;88.35;33.60;;;4.40;61.10;;;-0.83;100.00;95904.06;4916610;29;20037;-49
2023/03/04 00:16:38;;;;;;;102.88;36.85;;;4.30;61.20;;;-0.86;100.00;95898.41;4933917;28;20053;-48
2023/03/04 00:19:04;;;;;;;92.80;35.28;;;4.20;61.10;;;-0.90;100.00;95902.41;4952968;28;20108;-49
2023/03/04 00:21:33;;;;;;;89.90;34.58;;;4.20;61.30;;;-0.93;100.00;95898.34;4933979;28;20031;-50
2023/03/04 00:24:02;;;;;;;97.80;35.45;;;4.20;61.40;;;-0.97;100.00;95895.28;4951488;28;20046;-49
2023/03/04 00:26:28;;;;;;;108.43;38.05;;;4.10;61.40;;;-1.00;100.00;95900.06;4934760;28;20038;-51
2023/03/04 00:28:54;;;;;;;119.90;39.72;;;4.10;61.50;;;-1.04;100.00;95893.56;4952674;28;20037;-48
2023/03/04 00:31:23;;;;;;;116.03;40.50;;;4.00;61.60;;;-1.08;100.00;95903.59;4935033;28;20027;-50
2023/03/04 00:33:49;;;;;;;116.82;39.50;;;4.00;61.70;;;-1.11;100.00;95900.53;4923969;28;20038;-48
2023/03/04 00:36:15;;;;;;;124.60;42.22;;;4.00;61.80;;;-1.14;100.00;95904.31;4951855;28;20037;-49
2023/03/04 00:38:43;;;;;;;117.35;40.03;;;4.00;61.80;;;-1.19;100.00;95899.66;4950582;28;20030;-49
2023/03/04 00:41:24;;;;;;;121.00;41.67;;;4.00;62.00;;;-1.21;100.00;95901.63;4935352;28;20032;-48
2023/03/04 00:43:53;;;;;;;119.45;37.67;;;4.00;62.20;;;-1.27;100.00;95898.94;4951883;28;20121;-48
2023/03/04 00:46:19;;;;;;;104.65;37.25;;;3.90;62.10;;;-1.33;100.00;95897.88;4951994;28;20466;-49
2023/03/04 00:48:45;;;;;;;112.40;38.13;;;3.90;62.10;;;-1.34;100.00;95893.66;4952256;28;20065;-49
2023/03/04 00:51:13;;;;;;;110.45;38.55;;;3.80;62.10;;;-1.33;100.00;95902.28;4933894;28;20030;-48
2023/03/04 00:53:39;;;;;;;110.05;33.58;;;3.80;62.10;;;-1.41;100.00;95896.19;4951548;28;20038;-49
2023/03/04 00:56:08;;;;;;;115.20;38.50;;;3.80;62.10;;;-1.44;100.00;95898.34;4931531;29;20506;-50
2023/03/04 00:58:34;;;;;;;103.30;37.97;;;3.80;62.20;;;-1.41;100.00;95895.34;4930979;29;20110;-48
2023/03/04 01:01:00;;;;;;;115.07;37.55;;;3.70;62.30;;;-1.44;100.00;95893.13;4925820;28;20033;-51
2023/03/04 01:03:32;;;;;;;108.15;36.47;;;3.70;62.30;;;-1.46;100.00;95895.09;4935561;28;20019;-48
2023/03/04 01:06:04;;;;;;;116.85;38.30;;;3.70;62.50;;;-1.51;100.00;95893.00;4951742;28;20034;-49
2023/03/04 01:08:30;;;;;;;113.47;39.22;;;3.70;62.50;;;-1.49;100.00;95891.03;4939393;28;20054;-51
2023/03/04 01:10:58;;;;;;;117.35;39.05;;;3.60;62.30;;;-1.48;100.00;95884.81;4951248;28;20067;-49
2023/03/04 01:13:26;;;;;;;112.95;38.58;;;3.60;62.50;;;-1.48;100.00;95876.97;4951322;28;20271;-49
2023/03/04 01:15:52;;;;;;;103.75;37.75;;;3.60;62.50;;;-1.47;100.00;95880.41;4932309;28;20425;-51
2023/03/04 01:18:18;;;;;;;109.90;38.92;;;3.60;62.60;;;-1.47;100.00;95878.63;4951919;28;20397;-49
2023/03/04 01:20:44;;;;;;;133.68;41.55;;;3.60;62.60;;;-1.49;100.00;95871.94;4950130;28;20118;-49
2023/03/04 01:23:13;;;;;;;122.15;40.03;;;3.60;62.70;;;-1.48;100.00;95870.94;4951168;28;20022;-51
2023/03/04 01:25:41;;;;;;;132.38;42.45;;;3.60;62.80;;;-1.50;100.00;95872.94;4951089;28;20437;-50
2023/03/04 01:28:10;;;;;;;146.50;44.55;;;3.60;62.90;;;-1.51;100.00;95872.09;4929548;29;20030;-49
2023/03/04 01:30:36;;;;;;;133.75;44.17;;;3.60;63.00;;;-1.50;100.00;95867.72;4933773;28;20067;-49
2023/03/04 01:33:05;;;;;;;145.48;43.08;;;3.60;63.00;;;-1.49;100.00;95872.75;4949767;28;20063;-51
2023/03/04 01:35:33;;;;;;;134.02;43.00;;;3.60;63.10;;;-1.48;100.00;95874.34;4933485;28;20035;-50
2023/03/04 01:37:59;;;;;;;118.47;42.00;;;3.60;63.10;;;-1.48;100.00;95865.72;4934301;28;20069;-49
2023/03/04 01:40:35;;;;;;;154.50;45.35;;;3.60;63.20;;;-1.44;100.00;95874.84;4933039;29;20378;-49
2023/03/04 01:43:01;;;;;;;142.73;45.03;;;3.60;63.40;;;-1.38;100.00;95868.03;4915048;29;20050;-49
2023/03/04 01:45:30;;;;;;;148.70;43.75;;;3.60;63.40;;;-1.34;100.00;95866.69;4931245;28;20031;-49
2023/03/04 01:48:02;;;;;;;133.13;44.00;;;3.60;63.50;;;-1.30;100.00;95868.75;4950756;28;20483;-49
2023/03/04 01:50:34;;;;;;;137.43;44.83;;;3.60;63.60;;;-1.28;100.00;95868.59;4950505;28;20027;-54
2023/03/04 01:53:02;;;;;;;142.10;43.20;;;3.70;63.70;;;-1.30;100.00;95873.97;4923605;29;20473;-50
2023/03/04 01:55:30;;;;;;;141.50;45.28;;;3.70;63.60;;;-1.27;100.00;95862.34;4902316;28;20488;-52
2023/03/04 01:57:59;;;;;;;115.63;40.78;;;3.70;63.70;;;-1.29;100.00;95869.56;4933107;28;20146;-50
2023/03/04 02:00:34;;;;;;;122.57;42.17;;;3.70;63.70;;;-1.31;100.00;95863.72;4937244;28;20433;-49
2023/03/04 02:03:20;;;;;;;143.63;46.67;;;3.70;63.70;;;-1.33;100.00;95869.13;4916399;29;20025;-54
2023/03/04 02:05:54;;;;;;;146.07;45.17;;;3.70;63.70;;;-1.35;100.00;95854.59;4934105;29;20042;-51
2023/03/04 02:08:24;;;;;;;160.80;49.55;;;3.70;63.70;;;-1.35;100.00;95859.84;4934705;29;20027;-50
2023/03/04 02:10:54;;;;;;;143.18;46.00;;;3.70;63.80;;;-1.36;100.00;95859.03;4933395;29;20037;-51
2023/03/04 02:13:23;;;;;;;130.93;41.28;;;3.70;63.80;;;-1.36;100.00;95859.03;4933475;29;20029;-50
2023/03/04 02:15:52;;;;;;;122.35;40.55;;;3.70;63.70;;;-1.48;100.00;95855.25;4932924;29;20034;-52
2023/03/04 02:18:24;;;;;;;115.65;40.30;;;3.70;63.60;;;-1.48;100.00;95860.50;4917791;29;20053;-50
2023/03/04 02:21:29;;;;;;;131.57;43.92;;;3.70;63.60;;;-1.49;100.00;95858.88;4916957;29;20064;-53
2023/03/04 02:25:02;;;;;;;141.13;45.72;;;3.70;63.60;;;-1.52;100.00;95852.22;4920385;29;20054;-51
2023/03/04 02:27:31;;;;;;;141.57;45.72;;;3.60;63.50;;;-1.53;100.00;95852.41;4900170;29;20043;-50
2023/03/04 02:29:57;;;;;;;143.23;45.53;;;3.60;63.60;;;-1.53;100.00;95855.03;4933134;29;20027;-50
2023/03/04 02:32:23;;;;;;;121.60;40.92;;;3.60;63.70;;;-1.57;100.00;95848.50;4931915;29;20074;-54
2023/03/04 02:34:59;;;;;;;130.15;43.47;;;3.60;63.80;;;-1.60;100.00;95848.88;4929193;29;20039;-52
2023/03/04 02:37:30;;;;;;;124.53;43.08;;;3.50;63.80;;;-1.61;100.00;95847.28;4931639;29;20105;-50
2023/03/04 02:40:05;;;;;;;129.45;44.33;;;3.50;63.80;;;-1.65;100.00;95852.84;4929767;29;20069;-51
2023/03/04 02:42:31;;;;;;;137.30;43.90;;;3.50;63.80;;;-1.67;100.00;95851.41;4933693;29;20022;-48
2023/03/04 02:45:03;;;;;;;132.32;42.15;;;3.50;63.80;;;-1.70;100.00;95849.16;4932241;29;20400;-51
2023/03/04 02:47:46;;;;;;;144.65;45.85;;;3.50;63.90;;;-1.71;100.00;95850.16;4921280;29;20031;-50
2023/03/04 02:50:22;;;;;;;122.55;39.00;;;3.40;63.90;;;-1.76;100.00;95842.84;4917931;29;20399;-52
2023/03/04 02:52:53;;;;;;;152.63;45.28;;;3.40;63.80;;;-1.76;100.00;95849.88;4905550;29;20437;-50
2023/03/04 02:55:24;;;;;;;148.25;43.20;;;3.30;64.60;;;-1.78;100.00;95850.09;4932214;29;20514;-53
2023/03/04 02:57:50;;;;;;;125.55;38.40;;;3.30;64.00;;;-1.80;100.00;95854.66;4949592;29;20026;-50
2023/03/04 03:00:19;;;;;;;118.80;38.20;;;3.30;63.90;;;-1.83;100.00;95849.00;4950338;29;20093;-50
2023/03/04 03:02:57;;;;;;;110.78;36.33;;;3.30;63.90;;;-1.91;100.00;95855.94;4931437;29;20029;-49
2023/03/04 03:05:34;;;;;;;134.10;39.30;;;3.30;64.00;;;-1.93;100.00;95850.06;4937938;29;20026;-52
2023/03/04 03:08:01;;;;;;;125.40;41.10;;;3.20;64.70;;;-1.94;100.00;95851.06;4932298;29;20114;-50
2023/03/04 03:10:30;;;;;;;128.52;42.05;;;3.20;63.90;;;-1.97;100.00;95851.44;4925658;29;20041;-49
2023/03/04 03:13:02;;;;;;;120.40;37.80;;;3.20;63.90;;;-2.05;100.00;95853.31;4932924;29;20035;-50
2023/03/04 03:15:31;;;;;;;129.27;43.03;;;3.20;63.90;;;-2.12;100.00;95843.59;4933252;28;20026;-49
2023/03/04 03:18:00;;;;;;;123.75;38.53;;;3.10;63.90;;;-2.14;100.00;95847.34;4953863;28;20026;-50
2023/03/04 03:20:26;;;;;;;140.75;42.83;;;3.10;64.00;;;-2.17;100.00;95842.50;4936010;28;20037;-52
2023/03/04 03:22:55;;;;;;;118.25;37.35;;;3.00;63.90;;;-2.20;100.00;95848.88;4934744;28;20030;-49
2023/03/04 03:25:23;;;;;;;122.25;40.28;;;3.00;64.00;;;-2.18;100.00;95840.88;4994985;23;20084;-54
2023/03/04 03:27:52;;;;;;;126.43;40.38;;;2.90;64.00;;;-2.20;100.00;95845.47;4958706;28;20075;-57
2023/03/04 03:30:18;;;;;;;151.80;43.85;;;2.90;64.00;;;-2.21;100.00;95843.84;4992487;28;20020;-57
2023/03/04 03:32:47;;;;;;;121.63;39.97;;;2.90;64.10;;;-2.26;100.00;95843.56;4973589;28;20795;-53
2023/03/04 03:35:19;;;;;;;132.27;41.85;;;2.90;64.20;;;-2.28;100.00;95835.13;4949729;28;20026;-55
2023/03/04 03:37:44;;;;;;;128.87;41.30;;;2.90;64.10;;;-2.28;100.00;95843.75;4962919;28;20030;-55
2023/03/04 03:40:14;;;;;;;134.65;41.28;;;2.90;64.20;;;-2.30;100.00;95843.09;4974228;28;20029;-55
2023/03/04 03:42:43;;;;;;;132.15;42.67;;;2.90;64.40;;;-2.28;100.00;95840.34;4974698;28;20079;-53
2023/03/04 03:45:12;;;;;;;133.77;43.58;;;2.80;64.30;;;-2.28;100.00;95840.34;4957901;28;20029;-57
2023/03/04 03:47:38;;;;;;;126.07;41.45;;;2.80;64.30;;;-2.29;100.00;95836.88;4974857;28;20025;-53
2023/03/04 03:50:05;;;;;;;135.07;43.83;;;2.80;64.30;;;-2.29;100.00;95831.66;4977600;28;20076;-53
2023/03/04 03:52:34;;;;;;;143.95;46.13;;;2.80;64.30;;;-2.27;100.00;95839.34;4970175;28;20388;-55
2023/03/04 03:55:00;;;;;;;151.25;48.20;;;2.80;64.40;;;-2.26;100.00;95831.31;4975140;28;20423;-52
2023/03/04 03:57:28;;;;;;;130.20;42.25;;;2.80;64.60;;;-2.26;100.00;95833.13;4973147;28;20053;-49
2023/03/04 03:59:55;;;;;;;141.77;46.60;;;2.80;64.60;;;-2.25;100.00;95838.19;4974043;28;20057;-53
2023/03/04 04:02:22;;;;;;;138.25;43.47;;;2.90;64.60;;;-2.26;100.00;95836.53;4964090;28;20026;-49
2023/03/04 04:04:49;;;;;;;149.38;45.85;;;2.80;64.60;;;-2.27;100.00;95834.91;4969972;28;20125;-52
2023/03/04 04:07:15;;;;;;;136.27;44.45;;;2.80;64.70;;;-2.28;100.00;95832.50;4951387;28;20368;-52
2023/03/04 04:09:41;;;;;;;162.13;50.33;;;2.80;64.60;;;-2.27;100.00;95842.75;4956798;28;20087;-50
2023/03/04 04:12:07;;;;;;;140.88;45.90;;;2.80;64.70;;;-2.23;100.00;95845.81;4961233;28;20018;-52
2023/03/04 04:14:33;;;;;;;144.15;46.92;;;2.80;64.80;;;-2.22;100.00;95837.81;4988363;28;20033;-49
2023/03/04 04:16:59;;;;;;;130.45;41.05;;;2.80;64.80;;;-2.27;100.00;95834.91;4953347;28;20117;-50
2023/03/04 04:19:28;;;;;;;123.18;41.47;;;2.90;64.90;;;-2.36;100.00;95841.22;4968889;28;20533;-52
2023/03/04 04:21:54;;;;;;;124.65;39.60;;;2.80;64.70;;;-2.39;100.00;95841.56;4938849;28;20033;-53
2023/03/04 04:24:41;;;;;;;114.90;40.55;;;2.80;64.60;;;-2.40;100.00;95839.94;4960776;28;20053;-52
2023/03/04 04:27:06;;;;;;;107.75;37.55;;;2.80;64.70;;;-2.43;100.00;95842.91;4972475;28;20030;-51
2023/03/04 04:29:35;;;;;;;129.30;42.80;;;2.80;64.60;;;-2.49;100.00;95843.63;4977076;28;20054;-49
2023/03/04 04:32:02;;;;;;;133.52;43.47;;;2.80;64.60;;;-2.57;100.00;95842.72;4938689;28;20033;-49
2023/03/04 04:34:32;;;;;;;121.70;39.45;;;2.70;64.60;;;-2.63;100.00;95847.81;4984711;28;20056;-48
2023/03/04 04:37:03;;;;;;;131.40;44.40;;;2.70;64.60;;;-2.63;100.00;95848.63;4963804;28;20416;-50
2023/03/04 04:39:29;;;;;;;125.07;43.23;;;2.60;64.60;;;-2.63;100.00;95845.22;4987594;28;20365;-51
2023/03/04 04:41:55;;;;;;;129.68;42.80;;;2.60;64.60;;;-2.61;100.00;95848.44;4970068;28;20037;-51
2023/03/04 04:44:21;;;;;;;114.78;41.75;;;2.60;64.70;;;-2.60;100.00;95855.25;4968535;28;20639;-48
2023/03/04 04:46:59;;;;;;;130.10;43.33;;;2.60;64.80;;;-2.59;100.00;95843.88;4978279;28;20033;-52
2023/03/04 04:49:28;;;;;;;122.47;43.13;;;2.60;64.90;;;-2.61;100.00;95846.63;4957705;28;20022;-49
2023/03/04 04:51:57;;;;;;;131.13;44.50;;;2.50;64.80;;;-2.61;100.00;95853.66;4978609;28;20030;-49
2023/03/04 04:54:29;;;;;;;148.30;47.35;;;2.50;64.90;;;-2.60;100.00;95850.03;4989548;28;20053;-48
2023/03/04 04:56:55;;;;;;;147.50;47.38;;;2.50;64.90;;;-2.60;100.00;95855.25;4968519;28;20025;-51
2023/03/04 04:59:21;;;;;;;136.32;44.70;;;2.50;64.90;;;-2.60;100.00;95852.66;4970834;28;20044;-54
2023/03/04 05:01:50;;;;;;;137.02;44.67;;;2.50;65.00;;;-2.62;100.00;95857.25;4971142;28;20084;-53
2023/03/04 05:04:16;;;;;;;126.28;44.20;;;2.50;65.00;;;-2.65;100.00;95855.81;4967240;28;20038;-53
2023/03/04 05:06:47;;;;;;;135.93;46.60;;;2.50;65.00;;;-2.65;100.00;95853.19;4978134;28;20038;-48
2023/03/04 05:09:21;;;;;;;131.10;45.45;;;2.50;65.30;;;-2.66;100.00;95856.00;4977461;28;20025;-51
2023/03/04 05:11:50;;;;;;;130.48;45.97;;;2.50;65.10;;;-2.69;100.00;95854.53;4983140;28;20395;-50
2023/03/04 05:14:19;;;;;;;129.60;44.13;;;2.50;65.00;;;-2.71;100.00;95858.31;4964632;28;20025;-50
2023/03/04 05:16:45;;;;;;;136.43;46.13;;;2.50;65.00;;;-2.73;100.00;95850.66;4955350;28;20383;-48
2023/03/04 05:19:20;;;;;;;120.13;42.63;;;2.50;65.00;;;-2.72;100.00;95857.50;4980754;28;20021;-49
2023/03/04 05:21:45;;;;;;;138.57;44.97;;;2.50;65.00;;;-2.73;100.00;95853.25;4976752;28;20053;-49
2023/03/04 05:24:11;;;;;;;125.35;41.97;;;2.50;65.00;;;-2.76;100.00;95856.22;4988843;28;20037;-48
2023/03/04 05:26:43;;;;;;;119.72;43.17;;;2.50;65.10;;;-2.75;100.00;95859.66;4969714;28;20030;-47
2023/03/04 05:29:15;;;;;;;132.38;44.03;;;2.40;65.10;;;-2.72;100.00;95856.69;4949647;28;20025;-50
2023/03/04 05:31:44;;;;;;;159.80;49.20;;;2.40;65.00;;;-2.70;100.00;95860.72;4953732;28;20528;-50
2023/03/04 05:34:10;;;;;;;130.68;45.83;;;2.40;65.20;;;-2.68;100.00;95865.78;4954014;28;20703;-52
2023/03/04 05:36:36;;;;;;;141.75;48.80;;;2.50;65.30;;;-2.66;100.00;95863.81;4988779;28;20030;-49
2023/03/04 05:39:02;;;;;;;150.65;50.33;;;2.50;65.30;;;-2.64;100.00;95862.63;4985007;28;20041;-48
2023/03/04 05:41:31;;;;;;;144.38;47.88;;;2.50;65.50;;;-2.61;100.00;95870.09;4971809;28;20025;-50
2023/03/04 05:44:03;;;;;;;131.48;46.70;;;2.50;65.50;;;-2.58;100.00;95861.94;4975660;28;20029;-50
2023/03/04 05:46:32;;;;;;;131.38;44.40;;;2.60;65.60;;;-2.51;100.00;95872.47;4983693;28;20056;-51
2023/03/04 05:49:10;;;;;;;155.18;49.72;;;2.60;65.70;;;-2.46;100.00;95864.13;4986369;28;20026;-51
2023/03/04 05:51:42;;;;;;;130.88;46.25;;;2.70;65.80;;;-2.39;100.00;95868.47;4967575;28;20052;-50
2023/03/04 05:54:32;;;;;;;127.23;45.37;;;2.70;66.60;;;-2.34;100.00;95865.34;4988146;28;20030;-52
2023/03/04 05:56:58;;;;;;;113.47;42.92;;;2.80;65.80;;;-2.26;100.00;95861.81;4984923;28;20029;-50
2023/03/04 05:59:27;;;;;;;125.07;44.92;;;2.80;65.80;;;-2.21;100.00;95862.91;4978784;28;20025;-48
2023/03/04 06:01:59;;;;;;;136.80;47.75;;;2.90;65.80;;;-2.14;100.00;95861.22;4949164;28;20021;-49
2023/03/04 06:04:25;;;;;;;137.97;49.43;;;3.00;65.90;;;-2.09;100.00;95855.47;4983054;28;20029;-49
2023/03/04 06:06:51;;;;;;;115.15;43.22;;;3.00;65.70;;;-2.04;100.00;95865.38;4987223;28;20025;-48
2023/03/04 06:09:19;;;;;;;149.07;52.00;;;3.10;65.80;;;-2.01;100.00;95865.00;4943977;28;20496;-49
2023/03/04 06:11:48;;;;;;;145.52;50.40;;;3.10;65.80;;;-1.95;100.00;95870.31;4982998;28;20087;-49
2023/03/04 06:14:14;;;;;;;141.38;47.53;;;3.20;65.80;;;-1.89;100.00;95871.41;4972262;28;20034;-49
2023/03/04 06:16:52;;;;;;;122.20;43.78;;;3.30;65.90;;;-1.83;100.00;95878.53;4977157;28;20396;-50
2023/03/04 06:19:18;;;;;;;136.68;46.67;;;3.30;65.90;;;-1.80;100.00;95880.78;4970959;28;20080;-50
2023/03/04 06:21:45;;;;;;;125.55;46.25;;;3.40;65.70;;;-1.73;100.00;95886.91;4943105;28;20025;-52
2023/03/04 06:24:11;;;;;;;123.35;46.83;;;3.40;65.70;;;-1.69;100.00;95892.59;4980651;28;20061;-48
2023/03/04 06:26:37;;;;;;;118.90;45.88;;;3.50;65.70;;;-1.65;100.00;95899.88;4983692;28;20034;-50
2023/03/04 06:29:05;;;;;;;111.30;40.33;;;3.60;65.70;;;-1.60;100.00;95895.91;4980807;28;20029;-51
2023/03/04 06:31:31;;;;;;;110.75;42.40;;;3.70;65.60;;;-1.60;100.00;95894.09;4971529;28;20034;-52
2023/03/04 06:33:57;;;;;;;98.05;38.63;;;3.80;65.60;;;-1.55;100.00;95896.19;4980768;28;20056;-51
2023/03/04 06:36:26;;;;;;;117.28;42.95;;;3.80;65.40;;;-1.47;100.00;95896.09;4963901;28;20038;-48
2023/03/04 06:38:52;;;;;;;115.10;41.22;;;3.90;65.50;;;-1.44;100.00;95899.16;4955663;28;20432;-48
2023/03/04 06:41:18;;;;;;;114.03;43.15;;;3.90;65.30;;;-1.43;100.00;95906.00;4959549;28;20053;-48
2023/03/04 06:43:44;;;;;;;112.50;40.53;;;4.00;65.30;;;-1.37;100.00;95904.47;4945931;28;20022;-50
2023/03/04 06:46:16;;;;;;;121.80;44.88;;;4.10;65.30;;;-1.31;100.00;95911.56;4948791;28;20029;-52
2023/03/04 06:48:42;;;;;;;113.77;43.43;;;4.10;65.30;;;-1.21;100.00;95909.47;4980842;28;20362;-49
2023/03/04 06:51:11;;;;;;;130.25;48.95;;;4.20;65.30;;;-1.11;100.00;95914.41;4963353;28;20052;-51
2023/03/04 06:53:40;;;;;;;116.18;44.30;;;4.30;65.30;;;-1.01;100.00;95914.94;4984843;28;20026;-50
2023/03/04 06:56:14;;;;;;;123.90;46.55;;;4.40;65.30;;;-0.91;100.00;95922.47;4952536;28;20061;-52
2023/03/04 06:58:53;;;;;;;132.52;48.40;;;4.50;65.50;;;-0.79;100.00;95925.44;4972169;28;20036;-50
2023/03/04 07:01:25;;;;;;;116.30;45.33;;;4.60;65.50;;;-0.69;100.00;95923.31;4980673;28;20022;-49
2023/03/04 07:03:54;;;;;;;125.85;47.53;;;4.70;65.50;;;-0.60;100.00;95927.44;4953864;28;20028;-50
2023/03/04 07:06:28;;;;;;;119.72;45.80;;;4.80;65.40;;;-0.51;100.00;95928.94;4962248;28;20037;-49
2023/03/04 07:08:56;;;;;;;114.53;45.85;;;5.00;65.50;;;-0.43;100.00;95932.44;4955742;28;20072;-50
2023/03/04 07:11:27;;;;;;;106.68;43.97;;;5.10;65.30;;;-0.33;100.00;95928.50;4982156;28;20057;-50
2023/03/04 07:13:53;;;;;;;110.72;46.08;;;5.30;65.30;;;-0.24;100.00;95924.75;4952272;28;20053;-48
2023/03/04 07:16:22;;;;;;;99.22;40.65;;;5.40;65.10;;;-0.13;100.00;95930.47;4987067;28;20583;-51
2023/03/04 07:18:49;;;;;;;104.13;43.90;;;5.50;65.00;;;-0.05;100.00;95930.38;4989539;28;20018;-51
2023/03/04 07:21:17;;;;;;;103.97;41.53;;;5.70;64.90;;;0.02;100.00;95933.84;4956608;28;20191;-54
2023/03/04 07:23:43;;;;;;;106.63;41.90;;;5.80;64.70;;;0.10;100.00;95932.91;4893597;28;20034;-50
2023/03/04 07:26:10;;;;;;;94.40;39.78;;;5.90;64.60;;;0.18;100.00;95933.53;4960611;28;20033;-50
2023/03/04 07:28:36;;;;;;;96.50;43.22;;;6.00;64.50;;;0.27;100.00;95928.97;4982451;28;20028;-53
2023/03/04 07:31:22;;;;;;;83.65;39.67;;;6.10;64.30;;;0.37;100.00;95934.69;4971762;28;20029;-49
2023/03/04 07:33:48;;;;;;;96.55;40.17;;;6.20;64.20;;;0.42;100.00;95928.88;4953433;28;20026;-54
2023/03/04 07:36:14;;;;;;;95.82;38.33;;;6.30;64.00;;;0.51;100.00;95938.22;4970392;28;20061;-53
2023/03/04 07:38:50;;;;;;;91.43;39.28;;;6.40;63.90;;;0.56;100.00;95935.00;4973213;28;20022;-52
2023/03/04 07:41:18;;;;;;;79.47;38.03;;;6.60;64.00;;;0.62;100.00;95939.47;4968189;28;20025;-54
2023/03/04 07:43:44;;;;;;;92.05;40.30;;;6.70;63.80;;;0.72;100.00;95942.53;4974787;28;20025;-50
2023/03/04 07:46:10;;;;;;;87.55;41.25;;;6.80;63.80;;;0.80;100.00;95947.63;4964404;28;20396;-52
2023/03/04 07:48:37;;;;;;;84.30;38.35;;;6.90;63.70;;;0.93;100.00;95945.06;4960814;28;20045;-52
2023/03/04 07:51:33;;;;;;;80.22;39.17;;;7.00;63.60;;;1.02;100.00;95943.09;4956111;28;20054;-54
2023/03/04 07:54:00;;;;;;;77.35;37.33;;;7.20;63.40;;;1.15;100.00;95944.97;4964124;28;20092;-53
2023/03/04 07:56:32;;;;;;;75.85;37.17;;;7.30;63.20;;;1.32;100.00;95948.06;4979281;28;20045;-54
2023/03/04 07:59:02;;;;;;;83.18;39.00;;;7.50;63.10;;;1.39;100.00;95944.44;4960373;28;20052;-53
2023/03/04 08:01:36;;;;;;;77.97;39.03;;;7.70;62.90;;;1.42;100.00;95947.69;4961499;28;20030;-51
2023/03/04 08:04:06;;;;;;;77.97;37.78;;;7.80;62.60;;;1.54;100.00;95943.47;4955252;28;20508;-52
2023/03/04 08:06:33;;;;;;;74.80;38.20;;;8.00;62.40;;;1.74;100.00;95943.50;4987230;28;20026;-55
2023/03/04 08:09:06;;;;;;;72.40;37.05;;;8.20;62.10;;;1.90;100.00;95944.94;4983294;28;20484;-55
2023/03/04 08:11:36;;;;;;;71.05;36.78;;;8.40;61.80;;;1.98;100.00;95945.56;4966090;28;20397;-55
2023/03/04 08:14:03;;;;;;;69.68;37.33;;;8.50;61.60;;;2.03;100.00;95942.31;4966792;28;20026;-53
2023/03/04 08:16:32;;;;;;;72.03;36.78;;;8.50;61.30;;;2.23;99.62;95943.13;4964478;28;20499;-52
2023/03/04 08:19:02;;;;;;;65.82;34.25;;;8.80;61.10;;;2.51;99.55;95949.97;4973438;28;20385;-50
2023/03/04 08:21:29;;;;;;;72.75;37.10;;;9.10;61.00;;;2.62;97.58;95941.44;4987816;28;20049;-53
2023/03/04 08:24:00;;;;;;;66.70;35.92;;;9.30;60.80;;;2.76;96.56;95942.25;4980355;28;20033;-50
2023/03/04 08:26:40;;;;;;;71.30;37.53;;;9.40;60.50;;;2.83;95.51;95937.75;4961246;28;20413;-51
2023/03/04 08:29:11;;;;;;;62.30;35.47;;;9.50;60.30;;;3.00;94.78;95936.25;4969111;28;20010;-53
2023/03/04 08:31:38;;;;;;;68.60;35.08;;;9.80;60.10;;;3.23;94.79;95937.63;4982934;28;20034;-49
2023/03/04 08:34:06;;;;;;;61.00;33.65;;;10.00;59.90;;;3.49;91.59;95939.31;4961656;28;20047;-52
2023/03/04 08:36:32;;;;;;;60.90;33.35;;;10.40;59.70;;;3.75;90.73;95940.97;4981815;28;20036;-50
2023/03/04 08:38:58;;;;;;;63.63;34.17;;;10.60;59.30;;;4.00;88.64;95933.09;4968603;28;20389;-53
2023/03/04 08:41:26;;;;;;;59.95;33.42;;;10.80;59.00;;;4.23;87.88;95940.44;4967778;28;20026;-53
2023/03/04 08:43:52;;;;;;;56.05;33.22;;;11.10;58.90;;;4.47;85.70;95938.78;4988031;28;20045;-50
2023/03/04 08:46:22;;;;;;;64.50;34.53;;;11.30;58.60;;;4.65;83.66;95943.28;4963683;28;20045;-53
2023/03/04 08:48:53;;;;;;;57.28;32.90;;;11.70;58.20;;;4.90;82.50;95945.06;4978731;28;20053;-52
2023/03/04 08:51:22;;;;;;;55.30;31.55;;;11.90;57.70;;;5.20;80.46;95945.13;4977106;28;20069;-52
2023/03/04 08:53:48;;;;;;;56.78;33.65;;;12.20;57.50;;;5.24;78.63;95948.97;4970939;28;20025;-55
2023/03/04 08:56:15;;;;;;;57.15;33.05;;;12.40;57.20;;;5.31;78.62;95939.91;4961644;28;20500;-51
2023/03/04 08:58:58;;;;;;;54.65;32.65;;;12.60;56.70;;;5.55;76.88;95940.03;4955608;28;20036;-52
2023/03/04 09:01:35;;;;;;;57.20;33.33;;;12.90;56.10;;;5.71;76.37;95952.59;4984725;28;20436;-54
2023/03/04 09:04:05;;;;;;;60.88;32.97;;;13.10;55.80;;;5.83;75.54;95946.53;4955496;28;20021;-53
2023/03/04 09:06:33;;;;;;;56.60;34.45;;;13.10;56.20;;;6.00;75.52;95951.00;4990170;28;20130;-53
2023/03/04 09:09:03;;;;;;;59.97;34.92;;;13.30;55.40;;;6.17;74.17;95942.41;4971284;28;20049;-52
2023/03/04 09:11:36;;;;;;;58.40;32.47;;;13.40;54.90;;;6.40;73.32;95945.09;4972197;28;20025;-53
2023/03/04 09:14:03;;;;;;;57.63;34.88;;;13.60;54.60;;;6.55;72.13;95942.00;4985929;28;20020;-51
2023/03/04 09:16:28;;;;;;;61.67;33.53;;;13.80;54.40;;;6.76;71.27;95939.78;4987193;28;20029;-52
2023/03/04 09:19:00;;;;;;;60.15;34.35;;;14.10;54.00;;;6.79;69.92;95934.03;4956968;28;20035;-53
2023/03/04 09:21:32;;;;;;;57.83;35.38;;;14.30;53.60;;;6.83;69.37;95932.53;4965854;28;20484;-53
2023/03/04 09:26:31;;;;;;;57.47;33.95;;;14.70;52.60;;;7.38;67.11;95930.22;4965908;28;20054;-52
2023/03/04 09:29:03;;;;;;;56.00;34.00;;;15.00;52.40;;;7.64;66.45;95933.34;4967726;28;20032;-52
2023/03/04 09:31:29;;;;;;;57.87;33.30;;;15.30;51.90;;;7.86;65.35;95928.97;4979235;28;20025;-54
2023/03/04 09:33:59;;;;;;;53.22;32.30;;;15.50;51.70;;;8.18;64.65;95933.78;4978704;28;20239;-52
2023/03/04 09:36:32;;;;;;;58.10;35.60;;;15.80;51.20;;;8.46;63.72;95929.44;4948711;28;20027;-53
2023/03/04 09:39:01;;;;;;;56.15;34.85;;;16.10;50.80;;;8.52;62.93;95931.13;4949491;28;20049;-51
2023/03/04 09:41:51;;;;;;;58.53;33.88;;;16.30;50.40;;;8.78;62.03;95922.50;4964333;28;20072;-51
2023/03/04 09:44:40;;;;;;;53.25;33.10;;;16.70;49.80;;;9.29;61.15;95926.88;4944519;28;20026;-51
2023/03/04 09:47:16;;;;;;;52.83;32.78;;;16.90;49.20;;;9.65;59.87;95926.22;4956797;28;20042;-53
2023/03/04 09:50:01;;;;;;;50.70;31.55;;;17.20;49.00;;;9.80;58.91;95925.56;4946499;28;20034;-50
2023/03/04 09:53:39;;;;;;;54.22;32.53;;;17.50;48.40;;;9.97;57.21;95928.13;4963615;28;20058;-51
2023/03/04 09:56:06;;;;;;;53.25;32.33;;;17.80;47.80;;;10.29;57.21;95927.38;4960092;28;20425;-56
2023/03/04 09:59:02;;;;;;;57.28;33.45;;;18.00;47.60;;;10.33;54.93;95917.81;4948072;28;20030;-54
2023/03/04 10:01:52;;;;;;;52.53;33.63;;;18.20;46.80;;;10.50;55.20;95913.16;4964595;28;20248;-53
2023/03/04 10:04:43;;;;;;;57.80;34.50;;;18.50;46.40;;;10.71;54.92;95915.97;4966792;28;20033;-53
2023/03/04 10:07:27;;;;;;;54.70;34.72;;;18.80;46.10;;;10.80;54.37;95922.41;4940402;28;20384;-52
2023/03/04 10:10:26;;;;;;;57.47;34.53;;;19.10;45.50;;;10.25;54.06;95916.41;4956547;28;20114;-52
2023/03/04 10:12:56;;;;;;;53.78;34.38;;;19.30;44.70;;;10.54;55.06;95919.59;4948856;28;20073;-51
2023/03/04 10:15:47;;;;;;;57.38;35.13;;;19.40;44.50;;;10.76;53.88;95922.13;4961965;28;20508;-51
2023/03/04 10:18:57;;;;;;;58.65;36.38;;;19.60;43.70;;;11.04;53.34;95909.50;4978472;28;20030;-56
2023/03/04 10:22:00;;;;;;;53.92;35.00;;;19.70;43.60;;;11.40;52.60;95912.31;4971898;28;20058;-54